SARPSARE

Guest
Details From SARP - POSADAS
To SARE - RESISTENCIA
Flight Number -
Tags generated
Created
Modified
Stats Distance 165 nm / 305 km
Max Altitude 16,100 ft / 4,907 m
Waypoints 3
Social Downloads 1
Likes 0
Share VATSIM

Download

Looking for another format? Having issues loading an existing format? Contact us
Advertisement - Login to hide

Notes

Basic altitude profile: - Ascent Rate: 1200ft/min - Ascent Speed: 250kts - Cruise Altitude: 20000ft - Cruise Speed: 420kts - Descent Rate: 1500ft/min - Descent Speed: 250kts Options: - Use NATs: yes - Use PACOTS: yes - Use low airways: yes - Use high airways: yes

Route

SARP REPAM SARE

ID Type Via Altitude Latitude Longitude Leg Dist Tot Dist Heading (true) Name
O SARP APT - 0 ft / 0 m -27.38584˚ -55.97073˚ - 0 nm - POSADAS
REPAM FIX - 16,100 ft / 4,907 m -27.42917˚ -57.55833˚ 84 nm 84 nm 268° / 269° -
O SARE APT - 0 ft / 0 m -27.44999˚ -59.05613˚ 79 nm 164 nm 269° / 269° RESISTENCIA

Altitude Profile

Advertisement - Login to hide

Weather


0- 5 10 15 20 25 30 35+ Temperature / ° C

Clouds and Precipitation
Forecast for 2017-12-15 00:00 UTC. Updated 2 hours ago

Ground ~20,000 ft ~40,000 ft Winds

SARP

Details ICAO SARP (PSS)
Name POSADAS
Region Argentina
Timezone America/Argentina/Cordoba (UTC-3.0)
Stats Elevation 430 ft / 131 m (AMSL)
Location -27.385838° -55.970726°
Runways 1
Magnetic Variation 14.549° W

METAR

SARP 142100Z 09005KT 9999 SCT040TCU BKN200 27/22 Q1012

Decode

TAF

TAF SARP 141700Z 1418/1518 23015KT 9999 FEW030 SCT045TCU TX35/1518Z TN24/1509Z PROB30 1419/1423 6000 SHRA BKN030 FEW050CB

Decode

Departure Runways

ID Width Length Bearing (true) Bearing (mag) Surface Threshold Offset Overrun Length
01 98 ft / 30 m 7,433 ft / 2,266 m 359.33° 13.88° Asphalt 0 ft / 0 m 75 ft / 23 m
19 98 ft / 30 m 7,433 ft / 2,266 m 179.33° 193.88° Asphalt 0 ft / 0 m 75 ft / 23 m

SARE

Details ICAO SARE (RES)
Name RESISTENCIA
Region Argentina
Timezone America/Argentina/Cordoba (UTC-3.0)
Stats Elevation 173 ft / 53 m (AMSL)
Location -27.449986° -59.056125°
Runways 1
Magnetic Variation 12.049° W

METAR

SARE 142100Z 09009KT 8000 NSC 31/19 Q1010

Decode

TAF

TAF SARE 141700Z 1418/1518 14015KT CAVOK TX37/1518Z TN24/1509Z

Decode

Destination Runways

ID Width Length Bearing (true) Bearing (mag) Surface Threshold Offset Overrun Length
03 147 ft / 45 m 9,126 ft / 2,782 m 20.81° 32.86° Asphalt 0 ft / 0 m 115 ft / 35 m
21 147 ft / 45 m 9,126 ft / 2,782 m 200.81° 212.86° Asphalt 0 ft / 0 m 115 ft / 35 m

Approach Navaids

Runway Type Ident Frequency Range Bearing (true) Bearing (mag) Slope Elevation
21 Localiser RS 110.30 MHz 18 nm / 33 km 200.74° 212.79° - 174 ft / 53 m (AMSL)
21 Glidescope RS 110.30 MHz 10 nm / 19 km 200.81° 212.86° 3.00° 174 ft / 53 m (AMSL)